Plantsville, Connecticut
Current Conditions -  °F | °C
As of 5:53 PM on Tuesday 27 Jan 2015 (Local Time) from KMMK Reporting Station
Light Snow Light Snow  
Wind Chill:   Ceiling: 2100
Heat Index: 18°   Visibility: 1.5mi
Dew Point:   Wind: 18mph
Humidity: 65%   Direction: 330°NNW
Pressure: 29.67"   Gusts: 30mph
Location:  41.58°N, 72.89°W
Report Text: KMMK 272253Z AUTO 33016G26KT 1 1/2SM -SN OVC021 M08/M13 A2967 RMK AO2 PK WND 32026/2252 SNB31 SLP049 P0000 T10781133 TSNO $
Loading
Personal Weather Stations






























Interactive Weather Map New forecast layout! Learn more

10-Day Weather Forecast

Advertisements
Track Severe Weather on mobile